Time;durP1;ratioP1;P1;durP2;ratioP2;P2;SDS_P1;SDS_P2;PMS_P1;PMS_P2;Temp;Humidity;BMP_temperature;BMP_pressure;BME280_temperature;BME280_humidity;BME280_pressure;Samples;Min_cycle;Max_cycle;Signal;HPM_P1;HPM_P2
2023/10/28 12:50:26;;;;;;;4.43;2.08;;;;;;;;;;6216346;22;20843;-85
2023/10/28 12:52:52;;;;;;;4.32;2.03;;;;;;;;;;6249264;22;20028;-84
2023/10/28 12:55:18;;;;;;;3.55;1.90;;;;;;;;;;6277372;22;20365;-84
2023/10/28 12:57:43;;;;;;;4.82;1.80;;;;;;;;;;6277441;22;20008;-85
2023/10/28 13:00:10;;;;;;;3.55;2.28;;;;;;;;;;6277899;22;20000;-84
2023/10/28 13:02:37;;;;;;;2.40;1.98;;;;;;;;;;6250350;22;20094;-85
2023/10/28 13:05:13;;;;;;;3.28;1.90;;;;;;;;;;6277722;22;20078;-85
2023/10/28 13:07:45;;;;;;;3.35;1.98;;;;;;;;;;6277577;22;20000;-85
2023/10/28 13:10:13;;;;;;;4.05;2.13;;;;;;;;;;6277627;22;20057;-85
2023/10/28 13:12:39;;;;;;;2.97;2.00;;;;;;;;;;6277642;22;20004;-85
2023/10/28 13:15:07;;;;;;;2.50;2.03;;;;;;;;;;6250461;22;20338;-85
2023/10/28 13:17:33;;;;;;;2.53;1.70;;;;;;;;;;6277385;22;20079;-85
2023/10/28 13:19:58;;;;;;;3.75;1.88;;;;;;;;;;6277420;22;20032;-85
2023/10/28 13:22:24;;;;;;;2.90;1.80;;;;;;;;;;6277590;22;20314;-86
2023/10/28 13:24:50;;;;;;;2.25;1.80;;;;;;;;;;6277641;22;20007;-86
2023/10/28 13:27:15;;;;;;;4.43;1.83;;;;;;;;;;6278145;22;20046;-85
2023/10/28 13:29:42;;;;;;;3.65;2.03;;;;;;;;;;6277906;22;20470;-84
2023/10/28 13:32:10;;;;;;;4.03;1.90;;;;;;;;;;6278002;22;20004;-84
2023/10/28 13:34:36;;;;;;;4.40;2.00;;;;;;;;;;6278609;22;20086;-86
2023/10/28 13:37:04;;;;;;;3.70;2.20;;;;;;;;;;6278812;22;20000;-88
2023/10/28 13:39:30;;;;;;;4.35;2.30;;;;;;;;;;6251234;22;20012;-91
2023/10/28 13:41:56;;;;;;;1.92;1.80;;;;;;;;;;6251216;22;20003;-90
2023/10/28 13:44:21;;;;;;;3.67;2.50;;;;;;;;;;6251474;22;20014;-90
2023/10/28 13:46:47;;;;;;;4.55;3.33;;;;;;;;;;6278413;22;20043;-88
2023/10/28 13:49:15;;;;;;;4.38;3.42;;;;;;;;;;6251333;22;20346;-89
2023/10/28 13:51:43;;;;;;;3.58;2.63;;;;;;;;;;6251039;22;20026;-90
2023/10/28 13:54:09;;;;;;;6.05;2.10;;;;;;;;;;6278545;22;20374;-92
2023/10/28 13:56:43;;;;;;;3.97;2.55;;;;;;;;;;6251000;22;20429;-88
2023/10/28 13:59:10;;;;;;;4.53;2.78;;;;;;;;;;6278529;22;20007;-88
2023/10/28 14:01:35;;;;;;;3.90;2.30;;;;;;;;;;6278221;22;19996;-87
2023/10/28 14:04:01;;;;;;;5.18;2.40;;;;;;;;;;6278789;22;20014;-88
2023/10/28 14:06:26;;;;;;;4.45;2.53;;;;;;;;;;6277588;22;20004;-88
2023/10/28 14:08:52;;;;;;;4.25;2.63;;;;;;;;;;6250063;22;20347;-88
2023/10/28 14:11:24;;;;;;;2.50;2.10;;;;;;;;;;6250041;22;20007;-88
2023/10/28 14:13:50;;;;;;;3.97;2.35;;;;;;;;;;6249891;22;20010;-88
2023/10/28 14:16:17;;;;;;;7.15;2.08;;;;;;;;;;6277132;22;19999;-87
2023/10/28 14:18:48;;;;;;;3.88;2.08;;;;;;;;;;6277298;22;20423;-87
2023/10/28 14:21:16;;;;;;;3.78;2.20;;;;;;;;;;6277278;22;20003;-87
2023/10/28 14:23:42;;;;;;;4.10;2.13;;;;;;;;;;6277566;22;20003;-88
2023/10/28 14:26:07;;;;;;;3.35;1.98;;;;;;;;;;6277445;22;20004;-88
2023/10/28 14:28:34;;;;;;;3.97;2.78;;;;;;;;;;6278264;22;20008;-88
2023/10/28 14:30:59;;;;;;;5.70;2.35;;;;;;;;;;6252232;22;20073;-88
2023/10/28 14:33:24;;;;;;;11.73;2.50;;;;;;;;;;6252165;22;20418;-91
2023/10/28 14:35:51;;;;;;;6.80;2.50;;;;;;;;;;6252540;22;20010;-90
2023/10/28 14:38:17;;;;;;;3.08;2.10;;;;;;;;;;6252554;22;20000;-90
2023/10/28 14:40:42;;;;;;;4.72;2.03;;;;;;;;;;6280349;22;20027;-90
2023/10/28 14:43:08;;;;;;;2.45;1.90;;;;;;;;;;6257393;22;20010;-90
2023/10/28 14:45:33;;;;;;;3.40;1.90;;;;;;;;;;6279390;22;20014;-89
2023/10/28 14:47:59;;;;;;;3.33;2.10;;;;;;;;;;6278996;22;20076;-88
2023/10/28 14:50:26;;;;;;;1.95;1.70;;;;;;;;;;6251969;22;20004;-88
2023/10/28 14:52:52;;;;;;;6.20;2.40;;;;;;;;;;6251853;22;20030;-88
2023/10/28 14:55:17;;;;;;;3.35;2.35;;;;;;;;;;6278706;22;20418;-87
2023/10/28 14:57:43;;;;;;;4.07;2.35;;;;;;;;;;6253350;22;20149;-90
2023/10/28 15:00:10;;;;;;;2.50;2.20;;;;;;;;;;6278819;22;20004;-89
2023/10/28 15:02:36;;;;;;;3.47;2.10;;;;;;;;;;6251772;22;20004;-88
2023/10/28 15:05:06;;;;;;;4.43;2.30;;;;;;;;;;6252015;22;20007;-90
2023/10/28 15:07:31;;;;;;;;;;;;;;;;;;6252192;22;20003;-92
2023/10/28 15:09:58;;;;;;;6.50;2.42;;;;;;;;;;6251766;22;19969;-89
2023/10/28 15:12:24;;;;;;;5.30;2.20;;;;;;;;;;6251788;22;20495;-88
2023/10/28 15:14:49;;;;;;;4.78;2.75;;;;;;;;;;6278716;22;20004;-88
2023/10/28 15:17:15;;;;;;;3.70;2.53;;;;;;;;;;6251842;22;20330;-87
2023/10/28 15:19:41;;;;;;;3.80;2.67;;;;;;;;;;6278582;22;20003;-88
2023/10/28 15:22:06;;;;;;;6.38;2.47;;;;;;;;;;6278548;22;20418;-88
2023/10/28 15:24:32;;;;;;;8.63;2.92;;;;;;;;;;6278670;22;20007;-88
2023/10/28 15:26:57;;;;;;;4.35;2.40;;;;;;;;;;6251558;22;20003;-90
2023/10/28 15:29:22;;;;;;;5.57;2.90;;;;;;;;;;6278554;22;20362;-88
2023/10/28 15:31:48;;;;;;;7.05;3.08;;;;;;;;;;6278834;22;20061;-88
2023/10/28 15:34:13;;;;;;;6.72;2.92;;;;;;;;;;6278741;22;20004;-89
2023/10/28 15:36:39;;;;;;;5.65;2.90;;;;;;;;;;6251420;22;20053;-89
2023/10/28 15:39:04;;;;;;;5.90;3.15;;;;;;;;;;6250930;22;20004;-89
2023/10/28 15:41:30;;;;;;;3.78;2.47;;;;;;;;;;6278372;22;20084;-89
2023/10/28 15:43:55;;;;;;;6.13;3.05;;;;;;;;;;6278510;22;20058;-89
2023/10/28 15:46:21;;;;;;;6.63;2.72;;;;;;;;;;6278038;22;20137;-89
2023/10/28 15:48:48;;;;;;;4.05;3.00;;;;;;;;;;6251619;22;20007;-89
2023/10/28 15:51:19;;;;;;;3.88;2.75;;;;;;;;;;6251347;22;20118;-89
2023/10/28 15:53:45;;;;;;;3.45;2.40;;;;;;;;;;6278442;22;20007;-89
2023/10/28 15:56:11;;;;;;;7.80;2.72;;;;;;;;;;6278124;22;20031;-89
2023/10/28 15:58:39;;;;;;;6.28;2.53;;;;;;;;;;6251982;22;20506;-91
2023/10/28 16:01:06;;;;;;;5.97;2.20;;;;;;;;;;6280605;22;19999;-93
2023/10/28 16:03:32;;;;;;;3.47;2.38;;;;;;;;;;6282295;22;20370;-88
2023/10/28 16:05:59;;;;;;;4.70;2.22;;;;;;;;;;6253542;22;20000;-88
2023/10/28 16:08:27;;;;;;;4.15;2.40;;;;;;;;;;6254786;22;20003;-92
2023/10/28 16:10:52;;;;;;;5.68;2.38;;;;;;;;;;6254400;22;20442;-90
2023/10/28 16:13:19;;;;;;;3.88;2.42;;;;;;;;;;6285431;22;20004;-91
2023/10/28 16:15:46;;;;;;;6.15;2.17;;;;;;;;;;6256983;22;20011;-92
2023/10/28 16:18:13;;;;;;;3.50;2.53;;;;;;;;;;6282671;22;20029;-90
2023/10/28 16:20:42;;;;;;;4.95;2.53;;;;;;;;;;6254220;22;20015;-96
2023/10/28 16:23:11;;;;;;;4.20;2.08;;;;;;;;;;6252291;22;20008;-93
2023/10/28 16:25:37;;;;;;;7.25;2.85;;;;;;;;;;6251852;22;20053;-94
2023/10/28 16:28:04;;;;;;;4.78;2.85;;;;;;;;;;6252274;22;20369;-93
2023/10/28 16:30:29;;;;;;;4.82;2.08;;;;;;;;;;6252507;22;20003;-94
2023/10/28 16:32:55;;;;;;;3.65;2.75;;;;;;;;;;6280328;22;20087;-93
2023/10/28 16:35:21;;;;;;;6.40;2.80;;;;;;;;;;6281520;22;20407;-94
2023/10/28 16:37:47;;;;;;;5.03;2.70;;;;;;;;;;6255496;22;20004;-94
2023/10/28 16:40:12;;;;;;;4.00;2.72;;;;;;;;;;6258253;22;20038;-92
2023/10/28 16:42:38;;;;;;;4.80;2.50;;;;;;;;;;6234130;22;20007;-92
2023/10/28 16:45:03;;;;;;;6.25;2.53;;;;;;;;;;6279031;22;20003;-92
2023/10/28 16:47:29;;;;;;;3.10;2.53;;;;;;;;;;6252382;22;20308;-92
2023/10/28 16:49:55;;;;;;;2.47;2.20;;;;;;;;;;6252244;22;20415;-92
2023/10/28 16:52:23;;;;;;;4.18;2.70;;;;;;;;;;6277953;22;20000;-90
2023/10/28 16:54:52;;;;;;;6.78;2.78;;;;;;;;;;6251371;22;20004;-87
2023/10/28 16:57:17;;;;;;;5.57;2.38;;;;;;;;;;6283605;22;20000;-88
2023/10/28 16:59:43;;;;;;;6.78;2.22;;;;;;;;;;6250952;22;20019;-89
2023/10/28 17:02:09;;;;;;;4.70;2.60;;;;;;;;;;6277909;22;20004;-92
2023/10/28 17:04:35;;;;;;;5.22;2.53;;;;;;;;;;6250953;22;20008;-94
2023/10/28 17:07:01;;;;;;;5.60;2.90;;;;;;;;;;6251928;22;20014;-92
2023/10/28 17:09:27;;;;;;;3.28;2.50;;;;;;;;;;6251466;22;20020;-91
2023/10/28 17:11:52;;;;;;;4.55;3.00;;;;;;;;;;6251929;22;20007;-91
2023/10/28 17:14:18;;;;;;;3.92;2.70;;;;;;;;;;6281334;22;20035;-92
2023/10/28 17:16:43;;;;;;;8.07;2.97;;;;;;;;;;6279829;22;19999;-90
2023/10/28 17:19:09;;;;;;;5.47;2.30;;;;;;;;;;6279307;22;20008;-94
2023/10/28 17:21:35;;;;;;;3.08;1.83;;;;;;;;;;6251878;22;20004;-94
2023/10/28 17:24:00;;;;;;;4.97;2.42;;;;;;;;;;6252473;22;20014;-95
2023/10/28 17:26:26;;;;;;;4.20;2.00;;;;;;;;;;6252283;22;20075;-96
2023/10/28 17:28:51;;;;;;;3.58;2.30;;;;;;;;;;6254370;22;20008;-94
2023/10/28 17:31:17;;;;;;;3.55;2.40;;;;;;;;;;6251956;22;20012;-94
2023/10/28 17:33:43;;;;;;;4.38;2.63;;;;;;;;;;6252519;22;20445;-95
2023/10/28 17:36:10;;;;;;;3.63;2.40;;;;;;;;;;6251590;22;20651;-92
2023/10/28 17:38:36;;;;;;;6.70;2.40;;;;;;;;;;6251761;22;20503;-92
2023/10/28 17:41:11;;;;;;;5.63;4.00;;;;;;;;;;6253732;22;20102;-94
2023/10/28 17:43:38;;;;;;;6.78;3.20;;;;;;;;;;6252210;22;20000;-94
2023/10/28 17:46:09;;;;;;;6.00;3.88;;;;;;;;;;6251534;22;20014;-94
2023/10/28 17:48:35;;;;;;;5.18;3.20;;;;;;;;;;6227141;22;20004;-93
2023/10/28 17:51:11;;;;;;;2.53;1.85;;;;;;;;;;6251891;22;20430;-91
2023/10/28 17:53:38;;;;;;;2.58;1.98;;;;;;;;;;6251381;22;20394;-90
2023/10/28 17:56:07;;;;;;;7.75;2.20;;;;;;;;;;6280539;22;20000;-93
2023/10/28 17:58:33;;;;;;;3.33;1.85;;;;;;;;;;6256362;22;20087;-95
2023/10/28 18:00:59;;;;;;;6.78;2.15;;;;;;;;;;6254274;22;20016;-94
2023/10/28 18:03:24;;;;;;;2.45;2.05;;;;;;;;;;6257334;22;20492;-93
2023/10/28 18:05:51;;;;;;;6.65;2.15;;;;;;;;;;6258048;22;20057;-94
2023/10/28 18:08:16;;;;;;;4.78;2.45;;;;;;;;;;6256501;22;20339;-94
2023/10/28 18:10:42;;;;;;;5.78;2.25;;;;;;;;;;6258446;22;20106;-95
2023/10/28 18:13:09;;;;;;;4.47;2.00;;;;;;;;;;6264041;22;20003;-96
2023/10/28 18:15:34;;;;;;;7.13;2.20;;;;;;;;;;6257550;22;19999;-91
2023/10/28 18:18:01;;;;;;;5.47;3.03;;;;;;;;;;6256024;22;20006;-93
2023/10/28 18:20:26;;;;;;;3.95;2.38;;;;;;;;;;6256347;22;20004;-93
2023/10/28 18:22:55;;;;;;;4.28;2.08;;;;;;;;;;6282474;22;20078;-90
2023/10/28 18:25:23;;;;;;;4.05;2.17;;;;;;;;;;6256015;22;20000;-92
2023/10/28 18:27:49;;;;;;;4.38;2.15;;;;;;;;;;6255447;22;20004;-89
2023/10/28 18:30:15;;;;;;;3.22;1.83;;;;;;;;;;6256388;22;20000;-94
2023/10/28 18:32:41;;;;;;;3.10;1.80;;;;;;;;;;6286389;22;19999;-91
2023/10/28 18:35:09;;;;;;;4.35;2.00;;;;;;;;;;6283012;22;20098;-92
2023/10/28 18:37:38;;;;;;;3.50;1.95;;;;;;;;;;6258063;22;20003;-93
2023/10/28 18:40:07;;;;;;;3.05;2.05;;;;;;;;;;6284862;22;20004;-95
2023/10/28 18:42:36;;;;;;;4.68;2.10;;;;;;;;;;6257714;22;20004;-92
2023/10/28 18:45:02;;;;;;;4.68;2.38;;;;;;;;;;6255447;22;20031;-94
2023/10/28 18:47:28;;;;;;;3.92;3.30;;;;;;;;;;6255857;22;20061;-94
2023/10/28 18:49:54;;;;;;;3.42;3.10;;;;;;;;;;6255201;22;20003;-92
2023/10/28 18:52:21;;;;;;;7.40;5.57;;;;;;;;;;6255057;22;20027;-91
2023/10/28 18:54:47;;;;;;;5.68;2.92;;;;;;;;;;6253510;22;20008;-91
2023/10/28 18:57:12;;;;;;;5.07;2.53;;;;;;;;;;6281075;22;20014;-93
2023/10/28 18:59:38;;;;;;;9.90;3.88;;;;;;;;;;6258170;22;20019;-95
2023/10/28 19:02:04;;;;;;;8.93;5.05;;;;;;;;;;6255254;22;20042;-93
2023/10/28 19:04:41;;;;;;;7.65;4.47;;;;;;;;;;6256892;22;20003;-92
2023/10/28 19:07:07;;;;;;;7.20;3.72;;;;;;;;;;6255333;22;20003;-93
2023/10/28 19:09:34;;;;;;;5.18;3.40;;;;;;;;;;6253450;22;20047;-91
2023/10/28 19:11:59;;;;;;;5.15;3.20;;;;;;;;;;6256020;22;20007;-92
2023/10/28 19:14:25;;;;;;;5.30;2.65;;;;;;;;;;6256518;22;20422;-93
2023/10/28 19:16:52;;;;;;;5.50;2.75;;;;;;;;;;6251867;22;20024;-93
2023/10/28 19:19:17;;;;;;;5.93;3.00;;;;;;;;;;6256724;22;20008;-95
2023/10/28 19:21:44;;;;;;;3.58;2.75;;;;;;;;;;6264157;22;20015;-94
2023/10/28 19:24:11;;;;;;;3.55;2.53;;;;;;;;;;6261310;22;20073;-92
2023/10/28 19:26:37;;;;;;;5.63;2.70;;;;;;;;;;6233326;22;20026;-94
2023/10/28 19:29:03;;;;;;;5.50;2.67;;;;;;;;;;6258013;22;20004;-95
2023/10/28 19:31:29;;;;;;;5.50;2.88;;;;;;;;;;6260713;22;20444;-95
2023/10/28 19:33:55;;;;;;;5.80;3.35;;;;;;;;;;6256268;22;20090;-92
2023/10/28 19:36:22;;;;;;;5.70;3.63;;;;;;;;;;6256599;22;20411;-92
2023/10/28 19:38:48;;;;;;;5.80;2.75;;;;;;;;;;6260007;22;19996;-95
2023/10/28 19:41:13;;;;;;;7.13;3.00;;;;;;;;;;6264654;22;20026;-92
2023/10/28 19:44:03;;;;;;;6.07;2.30;;;;;;;;;;6265215;22;19987;-95
2023/10/28 19:49:48;;;;;;;3.88;2.92;;;;;;;;;;6249668;22;20883;-95
2023/10/28 19:52:52;;;;;;;3.15;2.20;;;;;;;;;;6215497;23;20088;-94
2023/10/28 19:55:19;;;;;;;5.22;2.20;;;;;;;;;;6212375;23;20068;-93
2023/10/28 19:57:47;;;;;;;5.30;2.35;;;;;;;;;;6201223;22;20403;-88
2023/10/28 20:00:13;;;;;;;3.95;1.95;;;;;;;;;;6207733;23;20036;-91
2023/10/28 20:02:39;;;;;;;5.85;3.20;;;;;;;;;;6195276;23;20000;-87
2023/10/28 20:05:06;;;;;;;5.13;3.30;;;;;;;;;;6197697;23;20020;-93
2023/10/28 20:07:32;;;;;;;7.07;3.15;;;;;;;;;;6221303;23;20000;-90
2023/10/28 20:09:58;;;;;;;4.57;2.50;;;;;;;;;;6195771;23;20005;-86
2023/10/28 20:12:23;;;;;;;3.33;2.22;;;;;;;;;;6192794;23;20066;-91
2023/10/28 20:14:49;;;;;;;3.85;2.40;;;;;;;;;;6223705;23;20418;-89
2023/10/28 20:17:15;;;;;;;9.40;2.63;;;;;;;;;;6194745;23;20020;-87
2023/10/28 20:19:41;;;;;;;6.07;2.80;;;;;;;;;;6200002;23;20031;-91
2023/10/28 20:22:09;;;;;;;7.60;2.40;;;;;;;;;;6202333;23;20031;-90
2023/10/28 20:25:13;;;;;;;4.13;3.17;;;;;;;;;;6206116;23;20115;-86
2023/10/28 20:27:45;;;;;;;6.43;3.10;;;;;;;;;;6202760;23;20012;-85
2023/10/28 20:30:16;;;;;;;5.82;3.28;;;;;;;;;;6203826;23;19992;-85
2023/10/28 20:32:45;;;;;;;6.32;3.20;;;;;;;;;;6199925;23;20004;-86
2023/10/28 20:35:32;;;;;;;4.97;2.92;;;;;;;;;;6206800;23;20001;-94
2023/10/28 20:38:05;;;;;;;3.03;2.30;;;;;;;;;;6206606;23;20005;-93
2023/10/28 20:40:31;;;;;;;3.60;2.53;;;;;;;;;;6213655;23;20005;-96
2023/10/28 20:42:57;;;;;;;4.22;2.30;;;;;;;;;;6215164;23;20012;-94
2023/10/28 20:45:23;;;;;;;5.57;2.70;;;;;;;;;;6214652;23;19988;-91
2023/10/28 20:47:51;;;;;;;7.00;3.17;;;;;;;;;;6207318;23;20004;-90
2023/10/28 20:50:20;;;;;;;4.45;3.30;;;;;;;;;;6234096;23;20008;-90
2023/10/28 20:53:01;;;;;;;5.05;2.35;;;;;;;;;;6213774;23;20009;-91
2023/10/28 20:55:27;;;;;;;4.30;2.33;;;;;;;;;;6236054;23;20075;-91
2023/10/28 20:57:54;;;;;;;5.03;2.78;;;;;;;;;;6232853;23;20008;-90
2023/10/28 21:00:19;;;;;;;5.28;2.58;;;;;;;;;;6205335;23;20017;-94
2023/10/28 21:02:47;;;;;;;6.05;2.63;;;;;;;;;;6205488;23;20012;-90
2023/10/28 21:05:13;;;;;;;5.05;2.65;;;;;;;;;;6229735;23;19997;-92
2023/10/28 21:08:06;;;;;;;6.18;3.20;;;;;;;;;;6199267;23;20000;-89
2023/10/28 21:10:32;;;;;;;5.07;2.70;;;;;;;;;;6200829;23;20012;-94
2023/10/28 21:12:58;;;;;;;4.20;2.80;;;;;;;;;;6225754;23;20001;-91
2023/10/28 21:15:26;;;;;;;4.30;2.38;;;;;;;;;;6226888;23;20032;-90
2023/10/28 21:17:52;;;;;;;3.47;2.08;;;;;;;;;;6199000;23;20008;-92
2023/10/28 21:20:17;;;;;;;4.88;2.25;;;;;;;;;;6198918;23;20040;-93
2023/10/28 21:22:43;;;;;;;6.43;2.45;;;;;;;;;;6226033;23;20005;-89
2023/10/28 21:25:09;;;;;;;2.42;1.90;;;;;;;;;;6202291;23;20428;-89
2023/10/28 21:27:36;;;;;;;4.22;1.88;;;;;;;;;;6226848;23;20060;-95
2023/10/28 21:30:03;;;;;;;6.03;2.25;;;;;;;;;;6175507;23;20013;-90
2023/10/28 21:32:31;;;;;;;5.97;2.45;;;;;;;;;;6201626;23;20008;-92
2023/10/28 21:34:57;;;;;;;5.40;2.90;;;;;;;;;;6201431;23;20017;-91
2023/10/28 21:37:23;;;;;;;4.07;2.53;;;;;;;;;;6200377;23;20031;-90
2023/10/28 21:39:50;;;;;;;7.13;2.97;;;;;;;;;;6199924;23;20440;-89
2023/10/28 21:42:20;;;;;;;6.65;2.40;;;;;;;;;;6232858;23;20027;-90
2023/10/28 21:44:45;;;;;;;;;;;;;;;;;;6207589;23;20008;-89
2023/10/28 21:47:19;;;;;;;5.07;2.10;;;;;;;;;;6209814;23;19955;-93
2023/10/28 21:49:50;;;;;;;6.07;2.33;;;;;;;;;;6257183;22;20047;-90
2023/10/28 21:52:20;;;;;;;4.63;2.17;;;;;;;;;;6262986;22;20035;-89
2023/10/28 21:54:46;;;;;;;2.47;1.63;;;;;;;;;;6258905;23;20004;-90
2023/10/28 21:57:28;;;;;;;3.50;2.05;;;;;;;;;;6261422;23;20004;-92
2023/10/28 21:59:53;;;;;;;5.00;1.75;;;;;;;;;;6260373;22;20011;-90
2023/10/28 22:02:19;;;;;;;4.40;2.20;;;;;;;;;;6254303;23;20061;-91
2023/10/28 22:04:45;;;;;;;5.68;2.25;;;;;;;;;;6256722;23;20007;-89
2023/10/28 22:07:12;;;;;;;4.18;2.35;;;;;;;;;;6256213;23;20039;-89
2023/10/28 22:09:40;;;;;;;4.82;2.30;;;;;;;;;;6255771;23;20068;-91
2023/10/28 22:12:06;;;;;;;7.38;3.15;;;;;;;;;;6228802;23;20110;-89
2023/10/28 22:14:33;;;;;;;3.88;2.55;;;;;;;;;;6253568;22;20087;-89
2023/10/28 22:17:03;;;;;;;3.30;2.30;;;;;;;;;;6259838;22;20010;-89
2023/10/28 22:19:32;;;;;;;2.80;1.83;;;;;;;;;;6233405;23;20068;-91
2023/10/28 22:22:04;;;;;;;4.40;2.08;;;;;;;;;;6236034;23;20035;-89
2023/10/28 22:24:35;;;;;;;5.13;2.10;;;;;;;;;;6257927;23;20011;-89
2023/10/28 22:27:01;;;;;;;3.03;1.88;;;;;;;;;;6256889;23;20004;-90
2023/10/28 22:29:26;;;;;;;5.03;2.10;;;;;;;;;;6257291;23;20003;-89
2023/10/28 22:31:54;;;;;;;3.78;2.20;;;;;;;;;;6258415;22;20004;-89
2023/10/28 22:34:23;;;;;;;3.72;2.88;;;;;;;;;;6258081;23;19996;-90
2023/10/28 22:36:53;;;;;;;4.47;2.67;;;;;;;;;;6256558;22;20004;-89
2023/10/28 22:39:18;;;;;;;5.30;2.97;;;;;;;;;;6252022;23;20015;-93
2023/10/28 22:41:43;;;;;;;4.50;2.90;;;;;;;;;;6248671;23;20008;-92
2023/10/28 22:44:11;;;;;;;4.00;2.60;;;;;;;;;;6252083;23;20081;-87
2023/10/28 22:46:38;;;;;;;3.35;2.50;;;;;;;;;;6246668;23;20011;-94
2023/10/28 22:49:03;;;;;;;4.38;2.58;;;;;;;;;;6248070;23;20385;-92
